sensor_id;sensor_type;location;lat;lon;timestamp;P1;durP1;ratioP1;P2;durP2;ratioP2
17488;SDS011;8861;52.644;4.734;2023-04-24T07:52:02;21.07;;;6.53;;
17488;SDS011;8861;52.644;4.734;2023-04-24T07:54:29;29.00;;;6.93;;
17488;SDS011;8861;52.644;4.734;2023-04-24T07:56:55;21.53;;;5.67;;
17488;SDS011;8861;52.644;4.734;2023-04-24T07:59:22;20.13;;;6.30;;
17488;SDS011;8861;52.644;4.734;2023-04-24T08:01:49;22.23;;;5.63;;
17488;SDS011;8861;52.644;4.734;2023-04-24T08:04:16;17.53;;;5.57;;
17488;SDS011;8861;52.644;4.734;2023-04-24T08:06:43;19.20;;;5.60;;
17488;SDS011;8861;52.644;4.734;2023-04-24T08:09:12;20.67;;;5.20;;
17488;SDS011;8861;52.644;4.734;2023-04-24T08:11:39;16.60;;;4.67;;
17488;SDS011;8861;52.644;4.734;2023-04-24T08:14:05;21.80;;;4.87;;
17488;SDS011;8861;52.644;4.734;2023-04-24T08:16:32;17.00;;;4.30;;
17488;SDS011;8861;52.644;4.734;2023-04-24T08:18:59;15.03;;;4.00;;
17488;SDS011;8861;52.644;4.734;2023-04-24T08:21:26;15.67;;;4.60;;
17488;SDS011;8861;52.644;4.734;2023-04-24T08:23:53;14.00;;;4.10;;
17488;SDS011;8861;52.644;4.734;2023-04-24T08:26:21;13.63;;;4.13;;
17488;SDS011;8861;52.644;4.734;2023-04-24T08:28:49;16.33;;;4.13;;
17488;SDS011;8861;52.644;4.734;2023-04-24T08:31:16;13.33;;;4.37;;
17488;SDS011;8861;52.644;4.734;2023-04-24T08:33:43;13.90;;;4.53;;
17488;SDS011;8861;52.644;4.734;2023-04-24T08:36:10;13.90;;;4.30;;
17488;SDS011;8861;52.644;4.734;2023-04-24T08:38:37;8.07;;;3.67;;
17488;SDS011;8861;52.644;4.734;2023-04-24T08:41:05;13.47;;;3.87;;
17488;SDS011;8861;52.644;4.734;2023-04-24T08:43:35;13.17;;;4.20;;
17488;SDS011;8861;52.644;4.734;2023-04-24T08:46:03;15.90;;;4.40;;
17488;SDS011;8861;52.644;4.734;2023-04-24T08:48:30;15.63;;;4.13;;
17488;SDS011;8861;52.644;4.734;2023-04-24T08:50:58;15.37;;;4.20;;
17488;SDS011;8861;52.644;4.734;2023-04-24T08:53:26;16.90;;;4.60;;
17488;SDS011;8861;52.644;4.734;2023-04-24T08:55:54;13.97;;;4.00;;
17488;SDS011;8861;52.644;4.734;2023-04-24T08:58:21;11.53;;;3.10;;
17488;SDS011;8861;52.644;4.734;2023-04-24T09:00:50;10.37;;;3.50;;
17488;SDS011;8861;52.644;4.734;2023-04-24T09:03:17;10.33;;;3.53;;
17488;SDS011;8861;52.644;4.734;2023-04-24T09:05:46;9.30;;;2.80;;
17488;SDS011;8861;52.644;4.734;2023-04-24T09:08:16;16.50;;;3.20;;
17488;SDS011;8861;52.644;4.734;2023-04-24T09:10:44;8.10;;;2.43;;
17488;SDS011;8861;52.644;4.734;2023-04-24T09:13:14;8.20;;;2.87;;
17488;SDS011;8861;52.644;4.734;2023-04-24T09:15:42;9.90;;;3.30;;
17488;SDS011;8861;52.644;4.734;2023-04-24T09:18:11;9.93;;;2.77;;
17488;SDS011;8861;52.644;4.734;2023-04-24T09:23:27;9.37;;;2.93;;
17488;SDS011;8861;52.644;4.734;2023-04-24T09:25:55;16.37;;;4.13;;
17488;SDS011;8861;52.644;4.734;2023-04-24T09:28:30;8.73;;;3.13;;
17488;SDS011;8861;52.644;4.734;2023-04-24T09:31:02;7.33;;;2.50;;
17488;SDS011;8861;52.644;4.734;2023-04-24T09:33:31;11.30;;;3.10;;
17488;SDS011;8861;52.644;4.734;2023-04-24T09:35:58;9.83;;;3.07;;
17488;SDS011;8861;52.644;4.734;2023-04-24T09:38:32;7.50;;;2.70;;
17488;SDS011;8861;52.644;4.734;2023-04-24T09:41:00;5.97;;;2.50;;
17488;SDS011;8861;52.644;4.734;2023-04-24T09:43:29;5.97;;;2.70;;
17488;SDS011;8861;52.644;4.734;2023-04-24T09:45:56;6.80;;;2.33;;
17488;SDS011;8861;52.644;4.734;2023-04-24T09:48:32;8.93;;;2.50;;
17488;SDS011;8861;52.644;4.734;2023-04-24T09:51:00;6.57;;;2.20;;
17488;SDS011;8861;52.644;4.734;2023-04-24T09:53:29;8.50;;;2.40;;
17488;SDS011;8861;52.644;4.734;2023-04-24T09:55:56;12.17;;;2.70;;
17488;SDS011;8861;52.644;4.734;2023-04-24T09:58:29;9.33;;;2.73;;
17488;SDS011;8861;52.644;4.734;2023-04-24T10:00:56;10.97;;;2.50;;
17488;SDS011;8861;52.644;4.734;2023-04-24T10:03:27;15.83;;;3.20;;
17488;SDS011;8861;52.644;4.734;2023-04-24T10:05:59;10.27;;;2.53;;
17488;SDS011;8861;52.644;4.734;2023-04-24T10:08:26;8.07;;;2.20;;
17488;SDS011;8861;52.644;4.734;2023-04-24T10:10:59;15.23;;;2.27;;
17488;SDS011;8861;52.644;4.734;2023-04-24T10:13:26;13.47;;;2.30;;
17488;SDS011;8861;52.644;4.734;2023-04-24T10:15:54;7.97;;;2.70;;
17488;SDS011;8861;52.644;4.734;2023-04-24T10:18:25;10.57;;;2.30;;
17488;SDS011;8861;52.644;4.734;2023-04-24T10:20:52;6.33;;;1.60;;
17488;SDS011;8861;52.644;4.734;2023-04-24T10:23:22;5.93;;;2.10;;
17488;SDS011;8861;52.644;4.734;2023-04-24T10:25:51;8.23;;;2.03;;
17488;SDS011;8861;52.644;4.734;2023-04-24T10:28:19;8.93;;;1.97;;
17488;SDS011;8861;52.644;4.734;2023-04-24T10:30:47;10.23;;;2.00;;
17488;SDS011;8861;52.644;4.734;2023-04-24T10:33:15;10.27;;;2.40;;
17488;SDS011;8861;52.644;4.734;2023-04-24T10:35:44;6.77;;;2.10;;
17488;SDS011;8861;52.644;4.734;2023-04-24T10:38:14;10.13;;;2.30;;
17488;SDS011;8861;52.644;4.734;2023-04-24T10:40:46;8.43;;;2.03;;
17488;SDS011;8861;52.644;4.734;2023-04-24T10:43:13;6.57;;;2.03;;
17488;SDS011;8861;52.644;4.734;2023-04-24T10:45:59;16.17;;;2.50;;
17488;SDS011;8861;52.644;4.734;2023-04-24T10:48:28;13.33;;;2.10;;
17488;SDS011;8861;52.644;4.734;2023-04-24T10:50:55;8.17;;;2.20;;
17488;SDS011;8861;52.644;4.734;2023-04-24T10:53:23;9.00;;;2.70;;
17488;SDS011;8861;52.644;4.734;2023-04-24T10:55:57;8.63;;;2.53;;
17488;SDS011;8861;52.644;4.734;2023-04-24T10:58:35;5.23;;;2.10;;
17488;SDS011;8861;52.644;4.734;2023-04-24T11:01:03;7.47;;;2.50;;
17488;SDS011;8861;52.644;4.734;2023-04-24T11:03:31;8.83;;;2.20;;
17488;SDS011;8861;52.644;4.734;2023-04-24T11:06:00;6.50;;;2.07;;
17488;SDS011;8861;52.644;4.734;2023-04-24T11:08:32;6.20;;;1.73;;
17488;SDS011;8861;52.644;4.734;2023-04-24T11:11:08;8.00;;;1.80;;
17488;SDS011;8861;52.644;4.734;2023-04-24T11:16:34;9.13;;;2.13;;
17488;SDS011;8861;52.644;4.734;2023-04-24T11:19:04;8.57;;;2.20;;
17488;SDS011;8861;52.644;4.734;2023-04-24T11:21:38;11.57;;;3.10;;
17488;SDS011;8861;52.644;4.734;2023-04-24T11:27:00;13.07;;;3.47;;
17488;SDS011;8861;52.644;4.734;2023-04-24T11:29:38;11.30;;;2.80;;
17488;SDS011;8861;52.644;4.734;2023-04-24T11:32:16;9.57;;;2.70;;
17488;SDS011;8861;52.644;4.734;2023-04-24T11:34:45;11.60;;;2.83;;
17488;SDS011;8861;52.644;4.734;2023-04-24T11:37:13;6.97;;;2.10;;
17488;SDS011;8861;52.644;4.734;2023-04-24T11:39:40;8.70;;;2.20;;
17488;SDS011;8861;52.644;4.734;2023-04-24T11:42:09;8.50;;;2.40;;
17488;SDS011;8861;52.644;4.734;2023-04-24T11:44:36;9.67;;;2.10;;
17488;SDS011;8861;52.644;4.734;2023-04-24T11:47:04;9.47;;;2.57;;
17488;SDS011;8861;52.644;4.734;2023-04-24T11:49:31;7.23;;;2.60;;
17488;SDS011;8861;52.644;4.734;2023-04-24T11:51:58;16.73;;;3.20;;
17488;SDS011;8861;52.644;4.734;2023-04-24T11:54:26;12.23;;;2.80;;
17488;SDS011;8861;52.644;4.734;2023-04-24T11:56:53;17.17;;;3.40;;
17488;SDS011;8861;52.644;4.734;2023-04-24T11:59:22;14.97;;;3.63;;
17488;SDS011;8861;52.644;4.734;2023-04-24T12:01:49;16.77;;;3.73;;
17488;SDS011;8861;52.644;4.734;2023-04-24T12:04:17;14.50;;;3.17;;
17488;SDS011;8861;52.644;4.734;2023-04-24T12:06:59;10.17;;;2.97;;
17488;SDS011;8861;52.644;4.734;2023-04-24T12:09:39;9.53;;;2.27;;
17488;SDS011;8861;52.644;4.734;2023-04-24T12:12:08;6.93;;;2.13;;
17488;SDS011;8861;52.644;4.734;2023-04-24T12:14:43;10.00;;;2.43;;
17488;SDS011;8861;52.644;4.734;2023-04-24T12:17:10;8.00;;;2.10;;
17488;SDS011;8861;52.644;4.734;2023-04-24T12:19:37;11.27;;;2.57;;
17488;SDS011;8861;52.644;4.734;2023-04-24T12:22:11;8.57;;;2.77;;
17488;SDS011;8861;52.644;4.734;2023-04-24T12:27:23;15.27;;;3.53;;
17488;SDS011;8861;52.644;4.734;2023-04-24T12:29:52;18.00;;;4.17;;
17488;SDS011;8861;52.644;4.734;2023-04-24T12:32:20;15.70;;;3.80;;
17488;SDS011;8861;52.644;4.734;2023-04-24T12:34:47;14.57;;;3.53;;
17488;SDS011;8861;52.644;4.734;2023-04-24T12:37:16;21.80;;;4.30;;
17488;SDS011;8861;52.644;4.734;2023-04-24T12:39:44;24.43;;;4.40;;
17488;SDS011;8861;52.644;4.734;2023-04-24T12:42:25;17.73;;;4.90;;
17488;SDS011;8861;52.644;4.734;2023-04-24T12:44:57;17.97;;;4.33;;
17488;SDS011;8861;52.644;4.734;2023-04-24T12:47:25;14.43;;;4.30;;
17488;SDS011;8861;52.644;4.734;2023-04-24T12:49:52;20.40;;;4.50;;
17488;SDS011;8861;52.644;4.734;2023-04-24T12:52:20;15.90;;;4.13;;
17488;SDS011;8861;52.644;4.734;2023-04-24T12:54:48;15.07;;;4.37;;
17488;SDS011;8861;52.644;4.734;2023-04-24T12:57:15;15.83;;;4.10;;
17488;SDS011;8861;52.644;4.734;2023-04-24T12:59:43;14.10;;;4.00;;
17488;SDS011;8861;52.644;4.734;2023-04-24T13:02:11;17.43;;;3.57;;
17488;SDS011;8861;52.644;4.734;2023-04-24T13:04:38;12.23;;;3.20;;
17488;SDS011;8861;52.644;4.734;2023-04-24T13:07:05;14.73;;;3.40;;
17488;SDS011;8861;52.644;4.734;2023-04-24T13:09:33;16.13;;;3.70;;
17488;SDS011;8861;52.644;4.734;2023-04-24T13:12:01;12.10;;;3.40;;
17488;SDS011;8861;52.644;4.734;2023-04-24T13:14:30;16.80;;;4.13;;
17488;SDS011;8861;52.644;4.734;2023-04-24T13:16:57;14.60;;;4.00;;
17488;SDS011;8861;52.644;4.734;2023-04-24T13:19:25;15.70;;;4.10;;
17488;SDS011;8861;52.644;4.734;2023-04-24T13:21:53;12.40;;;4.13;;
17488;SDS011;8861;52.644;4.734;2023-04-24T13:24:21;13.93;;;4.10;;
17488;SDS011;8861;52.644;4.734;2023-04-24T13:26:50;16.20;;;3.77;;
17488;SDS011;8861;52.644;4.734;2023-04-24T13:29:17;16.97;;;4.03;;
17488;SDS011;8861;52.644;4.734;2023-04-24T13:31:45;14.30;;;4.33;;
17488;SDS011;8861;52.644;4.734;2023-04-24T13:34:12;16.40;;;3.97;;
17488;SDS011;8861;52.644;4.734;2023-04-24T13:36:41;18.27;;;4.10;;
17488;SDS011;8861;52.644;4.734;2023-04-24T13:39:08;17.93;;;4.53;;
17488;SDS011;8861;52.644;4.734;2023-04-24T13:41:35;15.03;;;4.20;;
17488;SDS011;8861;52.644;4.734;2023-04-24T13:44:02;17.40;;;4.13;;
17488;SDS011;8861;52.644;4.734;2023-04-24T13:46:30;18.53;;;4.40;;
17488;SDS011;8861;52.644;4.734;2023-04-24T13:48:57;18.77;;;4.47;;
17488;SDS011;8861;52.644;4.734;2023-04-24T13:51:25;19.20;;;5.40;;
17488;SDS011;8861;52.644;4.734;2023-04-24T13:53:54;13.53;;;4.23;;
17488;SDS011;8861;52.644;4.734;2023-04-24T13:56:21;18.93;;;4.60;;
17488;SDS011;8861;52.644;4.734;2023-04-24T13:58:48;16.00;;;4.47;;
17488;SDS011;8861;52.644;4.734;2023-04-24T14:01:15;19.53;;;4.20;;
17488;SDS011;8861;52.644;4.734;2023-04-24T14:03:42;19.60;;;4.40;;
17488;SDS011;8861;52.644;4.734;2023-04-24T14:06:09;15.27;;;4.40;;
17488;SDS011;8861;52.644;4.734;2023-04-24T14:08:36;14.90;;;4.10;;
17488;SDS011;8861;52.644;4.734;2023-04-24T14:11:05;13.40;;;3.97;;
17488;SDS011;8861;52.644;4.734;2023-04-24T14:13:32;14.60;;;4.10;;
17488;SDS011;8861;52.644;4.734;2023-04-24T14:15:59;14.00;;;3.60;;
17488;SDS011;8861;52.644;4.734;2023-04-24T14:18:26;14.03;;;3.90;;
17488;SDS011;8861;52.644;4.734;2023-04-24T14:20:52;15.23;;;4.13;;
17488;SDS011;8861;52.644;4.734;2023-04-24T14:23:19;13.53;;;3.20;;
17488;SDS011;8861;52.644;4.734;2023-04-24T14:25:46;13.63;;;3.80;;
17488;SDS011;8861;52.644;4.734;2023-04-24T14:28:18;14.07;;;4.10;;
17488;SDS011;8861;52.644;4.734;2023-04-24T14:30:45;10.53;;;3.23;;
17488;SDS011;8861;52.644;4.734;2023-04-24T14:33:12;13.57;;;3.87;;
17488;SDS011;8861;52.644;4.734;2023-04-24T14:35:40;13.13;;;3.27;;
17488;SDS011;8861;52.644;4.734;2023-04-24T14:38:08;16.73;;;3.80;;
17488;SDS011;8861;52.644;4.734;2023-04-24T14:40:35;17.43;;;3.30;;
17488;SDS011;8861;52.644;4.734;2023-04-24T14:43:02;10.47;;;3.23;;
17488;SDS011;8861;52.644;4.734;2023-04-24T14:45:30;10.60;;;3.40;;
17488;SDS011;8861;52.644;4.734;2023-04-24T14:47:57;14.30;;;3.47;;
17488;SDS011;8861;52.644;4.734;2023-04-24T14:50:24;10.27;;;3.20;;
17488;SDS011;8861;52.644;4.734;2023-04-24T14:52:53;12.27;;;3.27;;
17488;SDS011;8861;52.644;4.734;2023-04-24T14:55:22;11.03;;;3.50;;
17488;SDS011;8861;52.644;4.734;2023-04-24T14:57:49;15.67;;;4.07;;
17488;SDS011;8861;52.644;4.734;2023-04-24T15:00:16;13.10;;;3.77;;
17488;SDS011;8861;52.644;4.734;2023-04-24T15:02:46;12.13;;;3.57;;
17488;SDS011;8861;52.644;4.734;2023-04-24T15:05:13;17.70;;;4.30;;
17488;SDS011;8861;52.644;4.734;2023-04-24T15:07:40;17.67;;;3.90;;
17488;SDS011;8861;52.644;4.734;2023-04-24T15:10:08;12.80;;;3.90;;
17488;SDS011;8861;52.644;4.734;2023-04-24T15:12:35;18.70;;;4.47;;
17488;SDS011;8861;52.644;4.734;2023-04-24T15:15:02;17.73;;;4.27;;
17488;SDS011;8861;52.644;4.734;2023-04-24T15:17:30;15.17;;;4.33;;
17488;SDS011;8861;52.644;4.734;2023-04-24T15:19:58;13.10;;;3.87;;
17488;SDS011;8861;52.644;4.734;2023-04-24T15:22:26;14.80;;;3.83;;
17488;SDS011;8861;52.644;4.734;2023-04-24T15:24:53;16.77;;;3.80;;
17488;SDS011;8861;52.644;4.734;2023-04-24T15:27:21;16.83;;;4.17;;
17488;SDS011;8861;52.644;4.734;2023-04-24T15:29:48;18.37;;;4.10;;
17488;SDS011;8861;52.644;4.734;2023-04-24T15:32:14;13.20;;;3.53;;
17488;SDS011;8861;52.644;4.734;2023-04-24T15:34:41;13.07;;;3.10;;
17488;SDS011;8861;52.644;4.734;2023-04-24T15:37:10;8.83;;;2.80;;
17488;SDS011;8861;52.644;4.734;2023-04-24T15:39:37;5.87;;;2.53;;
17488;SDS011;8861;52.644;4.734;2023-04-24T15:42:04;9.53;;;2.60;;
17488;SDS011;8861;52.644;4.734;2023-04-24T15:44:31;8.43;;;2.50;;
17488;SDS011;8861;52.644;4.734;2023-04-24T15:46:59;9.37;;;2.83;;
17488;SDS011;8861;52.644;4.734;2023-04-24T15:49:26;10.80;;;2.90;;
17488;SDS011;8861;52.644;4.734;2023-04-24T15:51:53;14.63;;;3.73;;
17488;SDS011;8861;52.644;4.734;2023-04-24T15:54:21;9.73;;;3.13;;
17488;SDS011;8861;52.644;4.734;2023-04-24T15:56:49;15.17;;;3.43;;
17488;SDS011;8861;52.644;4.734;2023-04-24T15:59:16;17.20;;;3.73;;
17488;SDS011;8861;52.644;4.734;2023-04-24T16:01:43;10.63;;;3.60;;
17488;SDS011;8861;52.644;4.734;2023-04-24T16:04:10;13.80;;;3.20;;
17488;SDS011;8861;52.644;4.734;2023-04-24T16:06:37;7.77;;;2.77;;
17488;SDS011;8861;52.644;4.734;2023-04-24T16:09:04;9.03;;;3.00;;
17488;SDS011;8861;52.644;4.734;2023-04-24T16:11:34;7.57;;;2.87;;
17488;SDS011;8861;52.644;4.734;2023-04-24T16:14:03;11.23;;;3.10;;
17488;SDS011;8861;52.644;4.734;2023-04-24T16:16:31;6.67;;;2.77;;
17488;SDS011;8861;52.644;4.734;2023-04-24T16:18:58;8.20;;;3.07;;
17488;SDS011;8861;52.644;4.734;2023-04-24T16:21:25;12.17;;;3.07;;
17488;SDS011;8861;52.644;4.734;2023-04-24T16:23:52;13.07;;;3.40;;
17488;SDS011;8861;52.644;4.734;2023-04-24T16:26:19;12.73;;;3.77;;
17488;SDS011;8861;52.644;4.734;2023-04-24T16:28:47;14.47;;;3.93;;
17488;SDS011;8861;52.644;4.734;2023-04-24T16:31:14;8.80;;;3.67;;
17488;SDS011;8861;52.644;4.734;2023-04-24T16:33:41;13.43;;;4.30;;
17488;SDS011;8861;52.644;4.734;2023-04-24T16:36:08;12.03;;;3.27;;
17488;SDS011;8861;52.644;4.734;2023-04-24T16:38:37;11.00;;;3.13;;
17488;SDS011;8861;52.644;4.734;2023-04-24T16:41:04;10.63;;;3.07;;
17488;SDS011;8861;52.644;4.734;2023-04-24T16:43:31;11.43;;;3.13;;
17488;SDS011;8861;52.644;4.734;2023-04-24T16:45:59;11.20;;;3.60;;
17488;SDS011;8861;52.644;4.734;2023-04-24T16:48:26;10.80;;;3.23;;
17488;SDS011;8861;52.644;4.734;2023-04-24T16:50:53;13.37;;;4.00;;
17488;SDS011;8861;52.644;4.734;2023-04-24T16:53:20;13.47;;;4.00;;
17488;SDS011;8861;52.644;4.734;2023-04-24T16:55:47;13.73;;;3.47;;
17488;SDS011;8861;52.644;4.734;2023-04-24T16:58:14;15.67;;;4.33;;
17488;SDS011;8861;52.644;4.734;2023-04-24T17:00:41;13.40;;;3.67;;
17488;SDS011;8861;52.644;4.734;2023-04-24T17:03:10;14.83;;;3.90;;
17488;SDS011;8861;52.644;4.734;2023-04-24T17:05:39;16.43;;;4.77;;
17488;SDS011;8861;52.644;4.734;2023-04-24T17:08:06;13.37;;;4.40;;
17488;SDS011;8861;52.644;4.734;2023-04-24T17:10:33;23.40;;;5.17;;
17488;SDS011;8861;52.644;4.734;2023-04-24T17:13:00;14.37;;;4.90;;
17488;SDS011;8861;52.644;4.734;2023-04-24T17:15:27;15.63;;;5.17;;
17488;SDS011;8861;52.644;4.734;2023-04-24T17:17:54;21.47;;;5.00;;
17488;SDS011;8861;52.644;4.734;2023-04-24T17:20:23;15.10;;;4.77;;
17488;SDS011;8861;52.644;4.734;2023-04-24T17:22:50;16.07;;;4.80;;
17488;SDS011;8861;52.644;4.734;2023-04-24T17:25:17;15.17;;;4.67;;
17488;SDS011;8861;52.644;4.734;2023-04-24T17:27:45;15.03;;;4.83;;
17488;SDS011;8861;52.644;4.734;2023-04-24T17:30:12;14.77;;;4.33;;
17488;SDS011;8861;52.644;4.734;2023-04-24T17:32:41;12.23;;;4.87;;
17488;SDS011;8861;52.644;4.734;2023-04-24T17:35:08;13.40;;;4.37;;
17488;SDS011;8861;52.644;4.734;2023-04-24T17:37:37;15.07;;;4.20;;
17488;SDS011;8861;52.644;4.734;2023-04-24T17:40:05;14.93;;;4.47;;
17488;SDS011;8861;52.644;4.734;2023-04-24T17:42:33;13.30;;;4.10;;
17488;SDS011;8861;52.644;4.734;2023-04-24T17:45:05;13.97;;;4.07;;
17488;SDS011;8861;52.644;4.734;2023-04-24T17:47:33;11.60;;;3.67;;
17488;SDS011;8861;52.644;4.734;2023-04-24T17:50:00;12.90;;;3.60;;
17488;SDS011;8861;52.644;4.734;2023-04-24T17:52:27;12.87;;;3.23;;
17488;SDS011;8861;52.644;4.734;2023-04-24T17:54:56;13.27;;;3.33;;
17488;SDS011;8861;52.644;4.734;2023-04-24T17:57:22;10.90;;;3.40;;
17488;SDS011;8861;52.644;4.734;2023-04-24T17:59:49;8.67;;;3.13;;
17488;SDS011;8861;52.644;4.734;2023-04-24T18:02:16;11.83;;;3.73;;
17488;SDS011;8861;52.644;4.734;2023-04-24T18:04:43;15.87;;;4.17;;
17488;SDS011;8861;52.644;4.734;2023-04-24T18:07:10;18.37;;;4.67;;
17488;SDS011;8861;52.644;4.734;2023-04-24T18:09:37;15.60;;;4.60;;
17488;SDS011;8861;52.644;4.734;2023-04-24T18:12:06;16.43;;;4.00;;
17488;SDS011;8861;52.644;4.734;2023-04-24T18:14:34;11.67;;;3.67;;
17488;SDS011;8861;52.644;4.734;2023-04-24T18:17:01;9.00;;;3.20;;
17488;SDS011;8861;52.644;4.734;2023-04-24T18:19:28;12.63;;;3.60;;
17488;SDS011;8861;52.644;4.734;2023-04-24T18:21:55;12.57;;;3.90;;
17488;SDS011;8861;52.644;4.734;2023-04-24T18:24:23;10.07;;;3.70;;
17488;SDS011;8861;52.644;4.734;2023-04-24T18:26:50;11.07;;;3.43;;
17488;SDS011;8861;52.644;4.734;2023-04-24T18:29:19;12.73;;;3.50;;
17488;SDS011;8861;52.644;4.734;2023-04-24T18:31:46;13.57;;;3.90;;
17488;SDS011;8861;52.644;4.734;2023-04-24T18:34:14;15.70;;;4.00;;
17488;SDS011;8861;52.644;4.734;2023-04-24T18:36:41;16.97;;;4.07;;
17488;SDS011;8861;52.644;4.734;2023-04-24T18:39:08;16.03;;;4.60;;
17488;SDS011;8861;52.644;4.734;2023-04-24T18:41:35;16.60;;;4.40;;
17488;SDS011;8861;52.644;4.734;2023-04-24T18:44:01;20.13;;;4.80;;
17488;SDS011;8861;52.644;4.734;2023-04-24T18:46:30;17.07;;;5.10;;
17488;SDS011;8861;52.644;4.734;2023-04-24T18:49:01;14.73;;;4.97;;
17488;SDS011;8861;52.644;4.734;2023-04-24T18:51:28;28.43;;;6.90;;
17488;SDS011;8861;52.644;4.734;2023-04-24T18:53:56;25.23;;;6.73;;
17488;SDS011;8861;52.644;4.734;2023-04-24T18:56:24;26.30;;;6.57;;
17488;SDS011;8861;52.644;4.734;2023-04-24T18:58:51;23.33;;;5.90;;
17488;SDS011;8861;52.644;4.734;2023-04-24T19:01:19;23.93;;;6.70;;
17488;SDS011;8861;52.644;4.734;2023-04-24T19:03:48;19.83;;;6.30;;
17488;SDS011;8861;52.644;4.734;2023-04-24T19:06:15;17.13;;;5.67;;
17488;SDS011;8861;52.644;4.734;2023-04-24T19:08:42;20.77;;;5.87;;
17488;SDS011;8861;52.644;4.734;2023-04-24T19:11:09;17.80;;;5.67;;
17488;SDS011;8861;52.644;4.734;2023-04-24T19:13:36;16.57;;;4.97;;
17488;SDS011;8861;52.644;4.734;2023-04-24T19:16:03;18.13;;;5.37;;
17488;SDS011;8861;52.644;4.734;2023-04-24T19:18:30;15.57;;;5.40;;
17488;SDS011;8861;52.644;4.734;2023-04-24T19:20:58;16.50;;;4.67;;
17488;SDS011;8861;52.644;4.734;2023-04-24T19:23:25;19.70;;;4.87;;
17488;SDS011;8861;52.644;4.734;2023-04-24T19:25:52;18.00;;;5.17;;
17488;SDS011;8861;52.644;4.734;2023-04-24T19:28:19;16.90;;;4.90;;
17488;SDS011;8861;52.644;4.734;2023-04-24T19:30:46;24.83;;;5.30;;
17488;SDS011;8861;52.644;4.734;2023-04-24T19:33:13;18.40;;;5.57;;
17488;SDS011;8861;52.644;4.734;2023-04-24T19:35:41;16.60;;;4.93;;
17488;SDS011;8861;52.644;4.734;2023-04-24T19:38:09;20.50;;;5.77;;
17488;SDS011;8861;52.644;4.734;2023-04-24T19:40:36;14.67;;;5.10;;
17488;SDS011;8861;52.644;4.734;2023-04-24T19:43:03;19.37;;;5.67;;
17488;SDS011;8861;52.644;4.734;2023-04-24T19:45:30;21.10;;;5.90;;
17488;SDS011;8861;52.644;4.734;2023-04-24T19:47:57;21.47;;;6.33;;
17488;SDS011;8861;52.644;4.734;2023-04-24T19:50:24;26.07;;;6.47;;
17488;SDS011;8861;52.644;4.734;2023-04-24T19:52:51;21.17;;;6.00;;
17488;SDS011;8861;52.644;4.734;2023-04-24T19:55:20;21.03;;;6.00;;
17488;SDS011;8861;52.644;4.734;2023-04-24T19:57:47;17.17;;;5.80;;
17488;SDS011;8861;52.644;4.734;2023-04-24T20:00:14;23.47;;;5.73;;
17488;SDS011;8861;52.644;4.734;2023-04-24T20:02:41;20.43;;;6.00;;
17488;SDS011;8861;52.644;4.734;2023-04-24T20:05:08;19.67;;;6.20;;
17488;SDS011;8861;52.644;4.734;2023-04-24T20:07:35;26.50;;;5.60;;
17488;SDS011;8861;52.644;4.734;2023-04-24T20:10:02;21.50;;;5.53;;
17488;SDS011;8861;52.644;4.734;2023-04-24T20:12:31;23.00;;;6.50;;
17488;SDS011;8861;52.644;4.734;2023-04-24T20:14:59;27.50;;;6.77;;
17488;SDS011;8861;52.644;4.734;2023-04-24T20:17:27;29.83;;;7.70;;
17488;SDS011;8861;52.644;4.734;2023-04-24T20:19:54;27.20;;;7.13;;
17488;SDS011;8861;52.644;4.734;2023-04-24T20:22:21;21.00;;;7.43;;
17488;SDS011;8861;52.644;4.734;2023-04-24T20:24:48;23.10;;;6.63;;
17488;SDS011;8861;52.644;4.734;2023-04-24T20:27:15;21.27;;;6.60;;
17488;SDS011;8861;52.644;4.734;2023-04-24T20:29:46;29.07;;;7.13;;
17488;SDS011;8861;52.644;4.734;2023-04-24T20:32:13;22.83;;;6.80;;
17488;SDS011;8861;52.644;4.734;2023-04-24T20:34:40;22.27;;;6.87;;
17488;SDS011;8861;52.644;4.734;2023-04-24T20:37:07;22.50;;;6.83;;
17488;SDS011;8861;52.644;4.734;2023-04-24T20:39:34;19.57;;;6.60;;
17488;SDS011;8861;52.644;4.734;2023-04-24T20:42:00;20.90;;;6.40;;
17488;SDS011;8861;52.644;4.734;2023-04-24T20:44:27;20.93;;;6.23;;
17488;SDS011;8861;52.644;4.734;2023-04-24T20:46:56;19.53;;;6.17;;
17488;SDS011;8861;52.644;4.734;2023-04-24T20:49:23;18.07;;;6.43;;
17488;SDS011;8861;52.644;4.734;2023-04-24T20:51:50;21.40;;;6.77;;
17488;SDS011;8861;52.644;4.734;2023-04-24T20:54:18;19.87;;;6.23;;
17488;SDS011;8861;52.644;4.734;2023-04-24T20:56:45;16.60;;;6.43;;
17488;SDS011;8861;52.644;4.734;2023-04-24T20:59:12;20.10;;;6.67;;
17488;SDS011;8861;52.644;4.734;2023-04-24T21:01:39;15.63;;;6.30;;
17488;SDS011;8861;52.644;4.734;2023-04-24T21:04:09;16.73;;;6.57;;
17488;SDS011;8861;52.644;4.734;2023-04-24T21:06:36;14.33;;;6.00;;
17488;SDS011;8861;52.644;4.734;2023-04-24T21:09:03;19.57;;;6.77;;
17488;SDS011;8861;52.644;4.734;2023-04-24T21:11:30;21.80;;;7.53;;
17488;SDS011;8861;52.644;4.734;2023-04-24T21:13:57;21.20;;;7.20;;
17488;SDS011;8861;52.644;4.734;2023-04-24T21:16:24;18.33;;;6.47;;
17488;SDS011;8861;52.644;4.734;2023-04-24T21:18:51;21.47;;;6.93;;
17488;SDS011;8861;52.644;4.734;2023-04-24T21:21:19;22.30;;;7.20;;
17488;SDS011;8861;52.644;4.734;2023-04-24T21:23:49;24.70;;;7.70;;
17488;SDS011;8861;52.644;4.734;2023-04-24T21:26:16;27.53;;;7.77;;
17488;SDS011;8861;52.644;4.734;2023-04-24T21:28:43;24.63;;;7.30;;
17488;SDS011;8861;52.644;4.734;2023-04-24T21:31:10;18.53;;;7.10;;
17488;SDS011;8861;52.644;4.734;2023-04-24T21:33:37;17.87;;;7.10;;
17488;SDS011;8861;52.644;4.734;2023-04-24T21:36:04;20.13;;;7.20;;
17488;SDS011;8861;52.644;4.734;2023-04-24T21:38:33;16.10;;;6.80;;
17488;SDS011;8861;52.644;4.734;2023-04-24T21:41:00;20.53;;;7.40;;
17488;SDS011;8861;52.644;4.734;2023-04-24T21:43:27;21.13;;;6.37;;
17488;SDS011;8861;52.644;4.734;2023-04-24T21:45:54;13.47;;;6.30;;
17488;SDS011;8861;52.644;4.734;2023-04-24T21:48:21;19.20;;;6.50;;
17488;SDS011;8861;52.644;4.734;2023-04-24T21:50:48;17.07;;;6.90;;
17488;SDS011;8861;52.644;4.734;2023-04-24T21:53:15;26.53;;;7.10;;
17488;SDS011;8861;52.644;4.734;2023-04-24T21:55:44;26.33;;;6.97;;
17488;SDS011;8861;52.644;4.734;2023-04-24T21:58:11;17.63;;;6.70;;
17488;SDS011;8861;52.644;4.734;2023-04-24T22:00:38;24.50;;;7.10;;
17488;SDS011;8861;52.644;4.734;2023-04-24T22:03:05;18.57;;;6.83;;
17488;SDS011;8861;52.644;4.734;2023-04-24T22:05:32;23.90;;;8.00;;
17488;SDS011;8861;52.644;4.734;2023-04-24T22:07:59;20.57;;;6.73;;
17488;SDS011;8861;52.644;4.734;2023-04-24T22:10:26;18.63;;;6.33;;
17488;SDS011;8861;52.644;4.734;2023-04-24T22:12:54;22.30;;;6.97;;
17488;SDS011;8861;52.644;4.734;2023-04-24T22:15:21;20.67;;;6.57;;
17488;SDS011;8861;52.644;4.734;2023-04-24T22:17:48;17.73;;;6.83;;
17488;SDS011;8861;52.644;4.734;2023-04-24T22:20:16;17.30;;;6.43;;
17488;SDS011;8861;52.644;4.734;2023-04-24T22:22:44;20.70;;;6.57;;
17488;SDS011;8861;52.644;4.734;2023-04-24T22:25:11;19.03;;;6.00;;
17488;SDS011;8861;52.644;4.734;2023-04-24T22:27:39;19.43;;;6.97;;
17488;SDS011;8861;52.644;4.734;2023-04-24T22:30:08;26.97;;;7.10;;
17488;SDS011;8861;52.644;4.734;2023-04-24T22:32:35;22.77;;;6.73;;
17488;SDS011;8861;52.644;4.734;2023-04-24T22:35:02;16.53;;;6.07;;
17488;SDS011;8861;52.644;4.734;2023-04-24T22:37:30;13.83;;;5.73;;
17488;SDS011;8861;52.644;4.734;2023-04-24T22:39:57;17.73;;;6.83;;
17488;SDS011;8861;52.644;4.734;2023-04-24T22:42:25;17.57;;;6.40;;
17488;SDS011;8861;52.644;4.734;2023-04-24T22:44:52;16.87;;;6.57;;
17488;SDS011;8861;52.644;4.734;2023-04-24T22:47:20;20.27;;;6.53;;
17488;SDS011;8861;52.644;4.734;2023-04-24T22:49:47;20.77;;;6.67;;
17488;SDS011;8861;52.644;4.734;2023-04-24T22:52:17;21.23;;;6.77;;
17488;SDS011;8861;52.644;4.734;2023-04-24T22:54:45;16.87;;;6.30;;
17488;SDS011;8861;52.644;4.734;2023-04-24T22:57:12;14.93;;;5.50;;